sensor_id;sensor_type;location;lat;lon;timestamp;pressure;altitude;pressure_sealevel;temperature;humidity
54978;BME280;40873;47.522;19.106;2022-09-09T00:04:18;100048.28;;;18.16;100.00
54978;BME280;40873;47.522;19.106;2022-09-09T00:09:47;100043.44;;;17.92;100.00
54978;BME280;40873;47.522;19.106;2022-09-09T00:12:34;100036.38;;;18.00;100.00
54978;BME280;40873;47.522;19.106;2022-09-09T00:15:16;100035.34;;;17.84;100.00
54978;BME280;40873;47.522;19.106;2022-09-09T00:28:22;100054.31;;;17.80;100.00
54978;BME280;40873;47.522;19.106;2022-09-09T00:30:51;100047.75;;;17.75;100.00
54978;BME280;40873;47.522;19.106;2022-09-09T00:33:20;100045.59;;;17.78;100.00
54978;BME280;40873;47.522;19.106;2022-09-09T00:35:56;100050.13;;;17.68;100.00
54978;BME280;40873;47.522;19.106;2022-09-09T00:38:38;100043.41;;;17.54;100.00
54978;BME280;40873;47.522;19.106;2022-09-09T00:44:33;100057.03;;;17.61;100.00
54978;BME280;40873;47.522;19.106;2022-09-09T00:50:00;100056.03;;;17.62;100.00
54978;BME280;40873;47.522;19.106;2022-09-09T00:58:38;100052.25;;;17.55;100.00
54978;BME280;40873;47.522;19.106;2022-09-09T01:01:12;100045.94;;;17.56;100.00
54978;BME280;40873;47.522;19.106;2022-09-09T01:03:49;100064.38;;;17.40;100.00
54978;BME280;40873;47.522;19.106;2022-09-09T01:06:35;100061.59;;;17.32;100.00
54978;BME280;40873;47.522;19.106;2022-09-09T01:09:27;100079.09;;;17.24;100.00
54978;BME280;40873;47.522;19.106;2022-09-09T01:17:10;100077.81;;;17.38;100.00
54978;BME280;40873;47.522;19.106;2022-09-09T01:22:40;100064.06;;;17.43;100.00
54978;BME280;40873;47.522;19.106;2022-09-09T01:27:48;100075.03;;;17.40;100.00
54978;BME280;40873;47.522;19.106;2022-09-09T01:30:18;100083.56;;;17.43;100.00
54978;BME280;40873;47.522;19.106;2022-09-09T01:32:48;100086.81;;;17.47;100.00
54978;BME280;40873;47.522;19.106;2022-09-09T01:37:45;100080.91;;;17.43;100.00
54978;BME280;40873;47.522;19.106;2022-09-09T01:40:12;100076.25;;;17.55;100.00
54978;BME280;40873;47.522;19.106;2022-09-09T01:42:39;100081.03;;;17.61;100.00
54978;BME280;40873;47.522;19.106;2022-09-09T01:45:06;100073.75;;;17.53;100.00
54978;BME280;40873;47.522;19.106;2022-09-09T01:47:34;100074.84;;;17.51;100.00
54978;BME280;40873;47.522;19.106;2022-09-09T01:50:02;100078.66;;;17.48;100.00
54978;BME280;40873;47.522;19.106;2022-09-09T01:52:39;100080.91;;;17.43;100.00
54978;BME280;40873;47.522;19.106;2022-09-09T01:55:06;100090.03;;;17.50;100.00
54978;BME280;40873;47.522;19.106;2022-09-09T01:57:53;100093.97;;;17.46;100.00
54978;BME280;40873;47.522;19.106;2022-09-09T02:00:24;100103.81;;;17.46;100.00
54978;BME280;40873;47.522;19.106;2022-09-09T02:03:00;100095.50;;;17.49;100.00
54978;BME280;40873;47.522;19.106;2022-09-09T02:05:40;100091.72;;;17.42;100.00
54978;BME280;40873;47.522;19.106;2022-09-09T02:08:17;100086.09;;;17.45;100.00
54978;BME280;40873;47.522;19.106;2022-09-09T02:11:05;100090.47;;;17.46;100.00
54978;BME280;40873;47.522;19.106;2022-09-09T02:13:36;100095.38;;;17.41;100.00
54978;BME280;40873;47.522;19.106;2022-09-09T02:16:07;100092.72;;;17.41;100.00
54978;BME280;40873;47.522;19.106;2022-09-09T02:18:38;100108.88;;;17.39;100.00
54978;BME280;40873;47.522;19.106;2022-09-09T02:21:07;100106.19;;;17.30;100.00
54978;BME280;40873;47.522;19.106;2022-09-09T02:23:39;100108.28;;;17.36;100.00
54978;BME280;40873;47.522;19.106;2022-09-09T02:26:09;100112.91;;;17.53;100.00
54978;BME280;40873;47.522;19.106;2022-09-09T02:28:37;100102.94;;;17.55;100.00
54978;BME280;40873;47.522;19.106;2022-09-09T02:31:06;100098.59;;;17.54;100.00
54978;BME280;40873;47.522;19.106;2022-09-09T02:33:45;100104.75;;;17.45;100.00
54978;BME280;40873;47.522;19.106;2022-09-09T02:36:15;100098.31;;;17.47;100.00
54978;BME280;40873;47.522;19.106;2022-09-09T02:38:46;100104.91;;;17.43;100.00
54978;BME280;40873;47.522;19.106;2022-09-09T02:41:20;100101.81;;;17.48;100.00
54978;BME280;40873;47.522;19.106;2022-09-09T02:43:49;100109.25;;;17.44;100.00
54978;BME280;40873;47.522;19.106;2022-09-09T02:47:12;100111.09;;;17.44;100.00
54978;BME280;40873;47.522;19.106;2022-09-09T02:49:16;100100.03;;;17.39;100.00
54978;BME280;40873;47.522;19.106;2022-09-09T02:51:53;100102.41;;;17.42;100.00
54978;BME280;40873;47.522;19.106;2022-09-09T02:54:30;100093.97;;;17.37;100.00
54978;BME280;40873;47.522;19.106;2022-09-09T02:57:08;100097.34;;;17.39;100.00
54978;BME280;40873;47.522;19.106;2022-09-09T02:59:38;100100.44;;;17.34;100.00
54978;BME280;40873;47.522;19.106;2022-09-09T03:02:05;100104.34;;;17.30;100.00
54978;BME280;40873;47.522;19.106;2022-09-09T03:04:32;100096.94;;;17.34;100.00
54978;BME280;40873;47.522;19.106;2022-09-09T03:06:59;100095.53;;;17.39;100.00
54978;BME280;40873;47.522;19.106;2022-09-09T03:09:26;100104.25;;;17.32;100.00
54978;BME280;40873;47.522;19.106;2022-09-09T03:11:53;100099.72;;;17.22;100.00
54978;BME280;40873;47.522;19.106;2022-09-09T03:14:24;100106.06;;;17.21;100.00
54978;BME280;40873;47.522;19.106;2022-09-09T03:16:52;100111.25;;;17.13;100.00
54978;BME280;40873;47.522;19.106;2022-09-09T03:19:20;100122.75;;;17.14;100.00
54978;BME280;40873;47.522;19.106;2022-09-09T03:21:47;100122.88;;;17.03;100.00
54978;BME280;40873;47.522;19.106;2022-09-09T03:24:14;100119.38;;;17.02;100.00
54978;BME280;40873;47.522;19.106;2022-09-09T03:26:42;100123.19;;;16.90;100.00
54978;BME280;40873;47.522;19.106;2022-09-09T03:29:12;100118.81;;;16.98;100.00
54978;BME280;40873;47.522;19.106;2022-09-09T03:31:39;100123.56;;;16.85;100.00
54978;BME280;40873;47.522;19.106;2022-09-09T03:34:06;100119.78;;;16.88;100.00
54978;BME280;40873;47.522;19.106;2022-09-09T03:36:34;100127.47;;;16.81;100.00
54978;BME280;40873;47.522;19.106;2022-09-09T03:39:01;100127.34;;;16.83;100.00
54978;BME280;40873;47.522;19.106;2022-09-09T03:41:29;100115.16;;;16.70;100.00
54978;BME280;40873;47.522;19.106;2022-09-09T03:43:56;100114.31;;;16.80;100.00
54978;BME280;40873;47.522;19.106;2022-09-09T03:46:24;100120.19;;;16.74;100.00
54978;BME280;40873;47.522;19.106;2022-09-09T03:48:52;100119.19;;;16.75;100.00
54978;BME280;40873;47.522;19.106;2022-09-09T03:51:19;100116.41;;;16.76;100.00
54978;BME280;40873;47.522;19.106;2022-09-09T03:53:48;100112.88;;;16.76;100.00
54978;BME280;40873;47.522;19.106;2022-09-09T03:56:15;100129.66;;;16.57;100.00
54978;BME280;40873;47.522;19.106;2022-09-09T03:58:43;100144.97;;;16.64;100.00
54978;BME280;40873;47.522;19.106;2022-09-09T04:01:12;100133.84;;;16.59;100.00
54978;BME280;40873;47.522;19.106;2022-09-09T04:03:44;100129.22;;;16.61;100.00
54978;BME280;40873;47.522;19.106;2022-09-09T04:06:12;100122.28;;;16.70;100.00
54978;BME280;40873;47.522;19.106;2022-09-09T04:08:41;100128.00;;;16.65;100.00
54978;BME280;40873;47.522;19.106;2022-09-09T04:11:09;100138.78;;;16.64;100.00
54978;BME280;40873;47.522;19.106;2022-09-09T04:13:39;100135.69;;;16.68;100.00
54978;BME280;40873;47.522;19.106;2022-09-09T04:16:10;100126.88;;;16.68;100.00
54978;BME280;40873;47.522;19.106;2022-09-09T04:18:38;100134.56;;;16.61;100.00
54978;BME280;40873;47.522;19.106;2022-09-09T04:21:05;100137.94;;;16.63;100.00
54978;BME280;40873;47.522;19.106;2022-09-09T04:23:33;100139.34;;;16.67;100.00
54978;BME280;40873;47.522;19.106;2022-09-09T04:26:02;100126.78;;;16.69;100.00
54978;BME280;40873;47.522;19.106;2022-09-09T04:28:32;100137.81;;;16.65;100.00
54978;BME280;40873;47.522;19.106;2022-09-09T04:31:08;100128.47;;;16.70;100.00
54978;BME280;40873;47.522;19.106;2022-09-09T04:33:36;100128.19;;;16.74;100.00
54978;BME280;40873;47.522;19.106;2022-09-09T04:36:06;100124.41;;;16.76;100.00
54978;BME280;40873;47.522;19.106;2022-09-09T04:38:33;100128.03;;;16.75;100.00
54978;BME280;40873;47.522;19.106;2022-09-09T04:41:00;100130.28;;;16.80;100.00
54978;BME280;40873;47.522;19.106;2022-09-09T04:43:29;100131.44;;;16.87;100.00
54978;BME280;40873;47.522;19.106;2022-09-09T04:45:57;100130.03;;;16.92;100.00
54978;BME280;40873;47.522;19.106;2022-09-09T04:48:26;100121.50;;;16.98;100.00
54978;BME280;40873;47.522;19.106;2022-09-09T04:50:55;100120.38;;;17.01;100.00
54978;BME280;40873;47.522;19.106;2022-09-09T04:53:22;100113.06;;;17.03;100.00
54978;BME280;40873;47.522;19.106;2022-09-09T04:55:49;100115.88;;;16.92;100.00
54978;BME280;40873;47.522;19.106;2022-09-09T04:58:16;100127.50;;;17.10;100.00
54978;BME280;40873;47.522;19.106;2022-09-09T05:00:43;100120.63;;;16.88;100.00
54978;BME280;40873;47.522;19.106;2022-09-09T05:03:10;100121.91;;;16.94;100.00
54978;BME280;40873;47.522;19.106;2022-09-09T05:05:39;100127.81;;;16.97;100.00
54978;BME280;40873;47.522;19.106;2022-09-09T05:08:07;100128.91;;;16.95;100.00
54978;BME280;40873;47.522;19.106;2022-09-09T05:10:38;100135.63;;;16.89;100.00
54978;BME280;40873;47.522;19.106;2022-09-09T05:13:05;100137.19;;;16.92;100.00
54978;BME280;40873;47.522;19.106;2022-09-09T05:15:33;100130.19;;;17.10;100.00
54978;BME280;40873;47.522;19.106;2022-09-09T05:18:00;100133.53;;;17.03;100.00
54978;BME280;40873;47.522;19.106;2022-09-09T05:20:28;100134.38;;;16.93;100.00
54978;BME280;40873;47.522;19.106;2022-09-09T05:22:55;100130.03;;;17.02;100.00
54978;BME280;40873;47.522;19.106;2022-09-09T05:25:23;100129.91;;;17.13;100.00
54978;BME280;40873;47.522;19.106;2022-09-09T05:27:52;100128.91;;;17.24;100.00
54978;BME280;40873;47.522;19.106;2022-09-09T05:30:21;100144.06;;;17.23;100.00
54978;BME280;40873;47.522;19.106;2022-09-09T05:32:50;100142.25;;;17.43;100.00
54978;BME280;40873;47.522;19.106;2022-09-09T05:35:16;100140.72;;;17.41;100.00
54978;BME280;40873;47.522;19.106;2022-09-09T05:37:45;100140.88;;;17.39;100.00
54978;BME280;40873;47.522;19.106;2022-09-09T05:40:13;100142.66;;;17.48;100.00
54978;BME280;40873;47.522;19.106;2022-09-09T05:42:40;100144.22;;;17.61;100.00
54978;BME280;40873;47.522;19.106;2022-09-09T05:45:08;100143.94;;;17.54;100.00
54978;BME280;40873;47.522;19.106;2022-09-09T05:47:35;100143.66;;;17.47;100.00
54978;BME280;40873;47.522;19.106;2022-09-09T05:50:04;100138.88;;;17.51;100.00
54978;BME280;40873;47.522;19.106;2022-09-09T05:52:31;100143.09;;;17.53;100.00
54978;BME280;40873;47.522;19.106;2022-09-09T05:54:58;100141.66;;;17.59;100.00
54978;BME280;40873;47.522;19.106;2022-09-09T05:57:26;100138.16;;;17.68;100.00
54978;BME280;40873;47.522;19.106;2022-09-09T05:59:53;100130.84;;;17.80;100.00
54978;BME280;40873;47.522;19.106;2022-09-09T06:02:20;100137.31;;;17.87;100.00
54978;BME280;40873;47.522;19.106;2022-09-09T06:04:47;100138.66;;;18.01;100.00
54978;BME280;40873;47.522;19.106;2022-09-09T06:07:14;100146.34;;;18.14;100.00
54978;BME280;40873;47.522;19.106;2022-09-09T06:09:41;100136.63;;;18.22;100.00
54978;BME280;40873;47.522;19.106;2022-09-09T06:12:08;100141.09;;;18.31;100.00
54978;BME280;40873;47.522;19.106;2022-09-09T06:14:35;100141.88;;;18.42;99.06
54978;BME280;40873;47.522;19.106;2022-09-09T06:17:03;100147.78;;;18.45;99.05
54978;BME280;40873;47.522;19.106;2022-09-09T06:19:30;100147.97;;;18.61;98.96
54978;BME280;40873;47.522;19.106;2022-09-09T06:21:57;100139.38;;;18.68;97.36
54978;BME280;40873;47.522;19.106;2022-09-09T06:24:25;100146.34;;;18.78;95.38
54978;BME280;40873;47.522;19.106;2022-09-09T06:26:52;100144.22;;;18.82;95.68
54978;BME280;40873;47.522;19.106;2022-09-09T06:29:18;100147.97;;;18.89;95.75
54978;BME280;40873;47.522;19.106;2022-09-09T06:31:45;100155.19;;;19.06;94.13
54978;BME280;40873;47.522;19.106;2022-09-09T06:34:12;100155.78;;;19.18;93.38
54978;BME280;40873;47.522;19.106;2022-09-09T06:36:39;100152.19;;;19.27;91.09
54978;BME280;40873;47.522;19.106;2022-09-09T06:39:07;100152.03;;;19.29;91.15
54978;BME280;40873;47.522;19.106;2022-09-09T06:41:40;100142.94;;;19.22;90.18
54978;BME280;40873;47.522;19.106;2022-09-09T06:44:09;100141.63;;;19.26;89.50
54978;BME280;40873;47.522;19.106;2022-09-09T06:46:38;100143.75;;;19.40;90.43
54978;BME280;40873;47.522;19.106;2022-09-09T06:49:07;100149.50;;;19.45;89.85
54978;BME280;40873;47.522;19.106;2022-09-09T06:51:36;100150.66;;;19.42;88.51
54978;BME280;40873;47.522;19.106;2022-09-09T06:54:10;100148.44;;;19.38;89.66
54978;BME280;40873;47.522;19.106;2022-09-09T06:56:41;100143.94;;;19.38;87.79
54978;BME280;40873;47.522;19.106;2022-09-09T06:59:10;100147.38;;;19.49;87.43
54978;BME280;40873;47.522;19.106;2022-09-09T07:01:40;100143.63;;;19.59;86.95
54978;BME280;40873;47.522;19.106;2022-09-09T07:04:07;100148.44;;;19.56;87.18
54978;BME280;40873;47.522;19.106;2022-09-09T07:06:37;100154.69;;;19.47;86.79
54978;BME280;40873;47.522;19.106;2022-09-09T07:09:07;100164.09;;;19.33;87.64
54978;BME280;40873;47.522;19.106;2022-09-09T07:11:39;100153.63;;;19.39;87.44
54978;BME280;40873;47.522;19.106;2022-09-09T07:14:08;100160.81;;;19.39;88.50
54978;BME280;40873;47.522;19.106;2022-09-09T07:16:35;100161.91;;;19.28;85.99
54978;BME280;40873;47.522;19.106;2022-09-09T07:19:04;100172.28;;;19.31;87.37
54978;BME280;40873;47.522;19.106;2022-09-09T07:21:32;100163.34;;;19.23;87.20
54978;BME280;40873;47.522;19.106;2022-09-09T07:24:00;100169.25;;;19.26;88.30
54978;BME280;40873;47.522;19.106;2022-09-09T07:26:29;100169.44;;;19.51;88.54
54978;BME280;40873;47.522;19.106;2022-09-09T07:28:57;100168.25;;;19.63;87.98
54978;BME280;40873;47.522;19.106;2022-09-09T07:31:29;100174.03;;;19.76;86.72
54978;BME280;40873;47.522;19.106;2022-09-09T07:34:00;100178.06;;;19.80;85.51
54978;BME280;40873;47.522;19.106;2022-09-09T07:36:29;100182.50;;;19.89;85.89
54978;BME280;40873;47.522;19.106;2022-09-09T07:39:10;100181.41;;;20.00;83.29
54978;BME280;40873;47.522;19.106;2022-09-09T07:41:40;100180.16;;;20.12;80.59
54978;BME280;40873;47.522;19.106;2022-09-09T07:44:11;100177.69;;;20.19;79.70
54978;BME280;40873;47.522;19.106;2022-09-09T07:46:38;100179.78;;;20.41;80.64
54978;BME280;40873;47.522;19.106;2022-09-09T07:49:07;100184.31;;;20.67;80.83
54978;BME280;40873;47.522;19.106;2022-09-09T07:51:36;100176.31;;;20.83;77.97
54978;BME280;40873;47.522;19.106;2022-09-09T07:54:06;100189.63;;;21.09;78.80
54978;BME280;40873;47.522;19.106;2022-09-09T07:56:33;100191.78;;;21.05;75.43
54978;BME280;40873;47.522;19.106;2022-09-09T07:59:00;100193.00;;;21.19;76.44
54978;BME280;40873;47.522;19.106;2022-09-09T08:01:31;100184.84;;;21.37;74.29
54978;BME280;40873;47.522;19.106;2022-09-09T08:04:01;100188.06;;;21.57;76.36
54978;BME280;40873;47.522;19.106;2022-09-09T08:06:34;100180.34;;;21.70;74.13
54978;BME280;40873;47.522;19.106;2022-09-09T08:09:03;100187.16;;;21.97;73.34
54978;BME280;40873;47.522;19.106;2022-09-09T08:11:30;100183.47;;;22.06;72.79
54978;BME280;40873;47.522;19.106;2022-09-09T08:14:05;100178.63;;;22.10;70.57
54978;BME280;40873;47.522;19.106;2022-09-09T08:16:34;100184.47;;;22.22;69.95
54978;BME280;40873;47.522;19.106;2022-09-09T08:19:03;100178.47;;;22.59;71.18
54978;BME280;40873;47.522;19.106;2022-09-09T08:21:31;100176.44;;;22.69;70.56
54978;BME280;40873;47.522;19.106;2022-09-09T08:24:00;100175.88;;;22.82;69.89
54978;BME280;40873;47.522;19.106;2022-09-09T08:26:33;100175.63;;;23.00;66.94
54978;BME280;40873;47.522;19.106;2022-09-09T08:29:03;100177.81;;;23.27;68.15
54978;BME280;40873;47.522;19.106;2022-09-09T08:31:42;100178.88;;;23.41;66.92
54978;BME280;40873;47.522;19.106;2022-09-09T08:34:09;100170.63;;;23.42;66.92
54978;BME280;40873;47.522;19.106;2022-09-09T08:36:43;100165.78;;;23.38;65.87
54978;BME280;40873;47.522;19.106;2022-09-09T08:39:13;100169.63;;;23.66;65.50
54978;BME280;40873;47.522;19.106;2022-09-09T08:41:52;100164.56;;;23.86;64.02
54978;BME280;40873;47.522;19.106;2022-09-09T08:50:18;100172.28;;;24.04;62.15
54978;BME280;40873;47.522;19.106;2022-09-09T08:53:02;100180.03;;;24.07;60.96
54978;BME280;40873;47.522;19.106;2022-09-09T08:58:32;100179.34;;;24.05;61.04
54978;BME280;40873;47.522;19.106;2022-09-09T09:12:00;100171.44;;;24.92;57.83
54978;BME280;40873;47.522;19.106;2022-09-09T09:14:30;100180.34;;;25.07;60.54
54978;BME280;40873;47.522;19.106;2022-09-09T09:17:38;100166.81;;;25.43;59.02
54978;BME280;40873;47.522;19.106;2022-09-09T09:19:59;100167.00;;;25.63;55.62
54978;BME280;40873;47.522;19.106;2022-09-09T09:22:40;100168.09;;;25.69;56.46
54978;BME280;40873;47.522;19.106;2022-09-09T09:30:40;100162.13;;;26.02;54.92
54978;BME280;40873;47.522;19.106;2022-09-09T09:33:31;100161.38;;;25.65;55.91
54978;BME280;40873;47.522;19.106;2022-09-09T09:36:02;100150.78;;;25.63;57.51
54978;BME280;40873;47.522;19.106;2022-09-09T09:38:29;100147.84;;;26.08;55.07
54978;BME280;40873;47.522;19.106;2022-09-09T09:41:16;100144.09;;;25.81;55.62
54978;BME280;40873;47.522;19.106;2022-09-09T09:43:53;100143.91;;;25.61;54.18
54978;BME280;40873;47.522;19.106;2022-09-09T09:46:23;100140.47;;;25.46;54.00
54978;BME280;40873;47.522;19.106;2022-09-09T09:49:04;100136.78;;;25.75;54.45
54978;BME280;40873;47.522;19.106;2022-09-09T09:51:33;100149.69;;;26.07;53.85
54978;BME280;40873;47.522;19.106;2022-09-09T09:54:26;100146.94;;;26.35;52.24
54978;BME280;40873;47.522;19.106;2022-09-09T09:56:55;100140.78;;;26.48;51.39
54978;BME280;40873;47.522;19.106;2022-09-09T09:59:34;100145.09;;;26.84;54.15
54978;BME280;40873;47.522;19.106;2022-09-09T10:02:23;100147.16;;;26.75;54.06
54978;BME280;40873;47.522;19.106;2022-09-09T10:05:04;100152.09;;;27.13;51.09
54978;BME280;40873;47.522;19.106;2022-09-09T10:07:32;100145.47;;;26.74;49.20
54978;BME280;40873;47.522;19.106;2022-09-09T10:10:00;100152.50;;;27.16;50.61
54978;BME280;40873;47.522;19.106;2022-09-09T10:15:39;100144.59;;;26.60;51.14
54978;BME280;40873;47.522;19.106;2022-09-09T10:32:29;100129.19;;;27.22;45.55
54978;BME280;40873;47.522;19.106;2022-09-09T10:40:20;100127.13;;;27.90;44.48
54978;BME280;40873;47.522;19.106;2022-09-09T10:42:58;100127.75;;;27.52;44.92
54978;BME280;40873;47.522;19.106;2022-09-09T10:45:37;100125.66;;;27.88;43.23
54978;BME280;40873;47.522;19.106;2022-09-09T10:56:24;100133.88;;;28.59;41.70
54978;BME280;40873;47.522;19.106;2022-09-09T10:59:05;100127.47;;;28.85;42.18
54978;BME280;40873;47.522;19.106;2022-09-09T11:01:37;100124.66;;;28.66;40.86
54978;BME280;40873;47.522;19.106;2022-09-09T11:06:48;100135.47;;;28.73;42.69
54978;BME280;40873;47.522;19.106;2022-09-09T11:09:26;100132.88;;;28.40;41.61
54978;BME280;40873;47.522;19.106;2022-09-09T11:11:56;100135.97;;;29.02;42.70
54978;BME280;40873;47.522;19.106;2022-09-09T11:14:31;100123.38;;;29.39;43.03
54978;BME280;40873;47.522;19.106;2022-09-09T11:17:27;100112.09;;;29.92;41.75
54978;BME280;40873;47.522;19.106;2022-09-09T11:19:59;100120.97;;;29.81;39.59
54978;BME280;40873;47.522;19.106;2022-09-09T11:22:37;100117.16;;;29.63;39.06
54978;BME280;40873;47.522;19.106;2022-09-09T11:25:10;100118.41;;;29.61;40.17
54978;BME280;40873;47.522;19.106;2022-09-09T11:34:36;100111.44;;;30.15;38.06
54978;BME280;40873;47.522;19.106;2022-09-09T11:37:39;100114.19;;;30.08;37.75
54978;BME280;40873;47.522;19.106;2022-09-09T11:40:23;100113.94;;;30.35;37.88
54978;BME280;40873;47.522;19.106;2022-09-09T11:43:03;100110.75;;;30.38;38.21
54978;BME280;40873;47.522;19.106;2022-09-09T11:45:34;100106.81;;;30.70;40.37
54978;BME280;40873;47.522;19.106;2022-09-09T11:48:03;100100.91;;;30.55;38.53
54978;BME280;40873;47.522;19.106;2022-09-09T11:50:37;100099.19;;;30.24;40.03
54978;BME280;40873;47.522;19.106;2022-09-09T11:53:25;100097.72;;;30.76;41.05
54978;BME280;40873;47.522;19.106;2022-09-09T11:58:38;100098.63;;;30.52;38.60
54978;BME280;40873;47.522;19.106;2022-09-09T12:01:14;100103.75;;;29.87;38.33
54978;BME280;40873;47.522;19.106;2022-09-09T12:03:48;100097.69;;;30.10;40.05
54978;BME280;40873;47.522;19.106;2022-09-09T12:06:25;100091.22;;;30.59;38.80
54978;BME280;40873;47.522;19.106;2022-09-09T12:08:58;100084.44;;;31.52;37.27
54978;BME280;40873;47.522;19.106;2022-09-09T12:11:31;100085.53;;;31.86;36.22
54978;BME280;40873;47.522;19.106;2022-09-09T12:14:00;100089.66;;;32.00;35.78
54978;BME280;40873;47.522;19.106;2022-09-09T12:24:33;100106.28;;;30.25;38.13
54978;BME280;40873;47.522;19.106;2022-09-09T12:27:15;100107.44;;;30.54;37.34
54978;BME280;40873;47.522;19.106;2022-09-09T12:30:04;100102.50;;;30.93;36.78
54978;BME280;40873;47.522;19.106;2022-09-09T12:32:36;100092.91;;;30.23;36.76
54978;BME280;40873;47.522;19.106;2022-09-09T12:35:11;100091.88;;;29.63;37.88
54978;BME280;40873;47.522;19.106;2022-09-09T12:37:46;100070.38;;;31.78;36.21
54978;BME280;40873;47.522;19.106;2022-09-09T12:40:25;100073.00;;;33.39;32.44
54978;BME280;40873;47.522;19.106;2022-09-09T12:42:52;100077.25;;;33.02;32.14
54978;BME280;40873;47.522;19.106;2022-09-09T12:45:25;100080.22;;;33.17;32.27
54978;BME280;40873;47.522;19.106;2022-09-09T12:47:54;100080.53;;;34.43;31.02
54978;BME280;40873;47.522;19.106;2022-09-09T12:50:25;100071.44;;;34.21;28.90
54978;BME280;40873;47.522;19.106;2022-09-09T12:52:58;100070.78;;;35.06;29.21
54978;BME280;40873;47.522;19.106;2022-09-09T12:55:32;100060.00;;;36.06;27.83
54978;BME280;40873;47.522;19.106;2022-09-09T12:58:02;100063.38;;;36.23;27.38
54978;BME280;40873;47.522;19.106;2022-09-09T13:00:34;100057.91;;;34.80;28.83
54978;BME280;40873;47.522;19.106;2022-09-09T13:03:17;100057.44;;;34.88;28.33
54978;BME280;40873;47.522;19.106;2022-09-09T13:05:44;100047.25;;;35.85;26.83
54978;BME280;40873;47.522;19.106;2022-09-09T13:08:13;100037.94;;;36.64;27.38
54978;BME280;40873;47.522;19.106;2022-09-09T13:13:26;100037.50;;;37.02;25.72
54978;BME280;40873;47.522;19.106;2022-09-09T13:15:57;100021.50;;;36.79;27.33
54978;BME280;40873;47.522;19.106;2022-09-09T13:18:30;100018.75;;;37.25;25.69
54978;BME280;40873;47.522;19.106;2022-09-09T13:20:59;100031.50;;;38.11;24.52
54978;BME280;40873;47.522;19.106;2022-09-09T13:23:28;100032.81;;;36.93;25.91
54978;BME280;40873;47.522;19.106;2022-09-09T13:26:02;100022.06;;;37.32;26.93
54978;BME280;40873;47.522;19.106;2022-09-09T13:28:30;100013.41;;;36.37;26.68
54978;BME280;40873;47.522;19.106;2022-09-09T13:31:02;100016.56;;;33.50;30.08
54978;BME280;40873;47.522;19.106;2022-09-09T13:33:39;100020.53;;;31.83;32.21
54978;BME280;40873;47.522;19.106;2022-09-09T13:36:08;100021.88;;;30.92;35.46
54978;BME280;40873;47.522;19.106;2022-09-09T13:38:53;100030.50;;;30.58;35.51
54978;BME280;40873;47.522;19.106;2022-09-09T13:41:23;100028.16;;;30.14;35.90
54978;BME280;40873;47.522;19.106;2022-09-09T13:43:51;100014.47;;;29.84;35.76
54978;BME280;40873;47.522;19.106;2022-09-09T13:46:34;100023.66;;;29.39;38.47
54978;BME280;40873;47.522;19.106;2022-09-09T13:51:38;100019.66;;;28.92;38.36
54978;BME280;40873;47.522;19.106;2022-09-09T13:54:09;100017.28;;;28.71;37.76
54978;BME280;40873;47.522;19.106;2022-09-09T13:56:38;100018.69;;;28.48;37.18
54978;BME280;40873;47.522;19.106;2022-09-09T13:59:08;100008.72;;;28.35;37.43
54978;BME280;40873;47.522;19.106;2022-09-09T14:01:38;100013.66;;;28.52;42.89
54978;BME280;40873;47.522;19.106;2022-09-09T14:04:05;99997.72;;;29.18;37.78
54978;BME280;40873;47.522;19.106;2022-09-09T14:06:37;99999.53;;;30.41;36.10
54978;BME280;40873;47.522;19.106;2022-09-09T14:09:06;99997.38;;;31.03;37.50
54978;BME280;40873;47.522;19.106;2022-09-09T14:11:33;99987.94;;;30.16;39.25
54978;BME280;40873;47.522;19.106;2022-09-09T14:14:00;99987.34;;;29.59;37.75
54978;BME280;40873;47.522;19.106;2022-09-09T14:16:27;99989.16;;;29.21;37.89
54978;BME280;40873;47.522;19.106;2022-09-09T14:18:54;99983.84;;;28.77;38.86
54978;BME280;40873;47.522;19.106;2022-09-09T14:21:26;99981.47;;;28.55;40.11
54978;BME280;40873;47.522;19.106;2022-09-09T14:23:54;99979.28;;;27.88;42.72
54978;BME280;40873;47.522;19.106;2022-09-09T14:26:21;99981.03;;;27.69;40.66
54978;BME280;40873;47.522;19.106;2022-09-09T14:28:49;99987.50;;;27.54;40.82
54978;BME280;40873;47.522;19.106;2022-09-09T14:31:23;99985.63;;;27.42;42.30
54978;BME280;40873;47.522;19.106;2022-09-09T14:33:50;99992.28;;;27.46;41.80
54978;BME280;40873;47.522;19.106;2022-09-09T14:36:17;99991.28;;;27.40;42.13
54978;BME280;40873;47.522;19.106;2022-09-09T14:38:45;99981.56;;;27.91;38.25
54978;BME280;40873;47.522;19.106;2022-09-09T14:41:14;99983.13;;;29.99;36.61
54978;BME280;40873;47.522;19.106;2022-09-09T14:43:45;99971.25;;;32.13;33.29
54978;BME280;40873;47.522;19.106;2022-09-09T14:46:14;99971.53;;;30.52;36.45
54978;BME280;40873;47.522;19.106;2022-09-09T14:48:41;99972.84;;;29.83;34.87
54978;BME280;40873;47.522;19.106;2022-09-09T14:51:11;99978.13;;;29.16;37.35
54978;BME280;40873;47.522;19.106;2022-09-09T14:53:40;99976.34;;;29.04;38.16
54978;BME280;40873;47.522;19.106;2022-09-09T14:56:15;99979.09;;;28.34;39.26
54978;BME280;40873;47.522;19.106;2022-09-09T14:58:42;99993.94;;;28.31;40.04
54978;BME280;40873;47.522;19.106;2022-09-09T15:01:13;99984.22;;;28.10;40.65